Pagina principală
METAR-TAF:

METAR-TAF

Aeroporturi :

Hévíz, Ungaria

Latitudine: 46-41-11N, longitudine: 017-09-33E, elevație: 124 m

Observații meteo curente

Raportul a fost făcut în urmă cu 51 de minute, la 10:15 UTC
Vânt 14 kt de la Nord/Nord-est, variabil între Nord și Nord-est
Temperatură 30°C
Umiditate 49%
Presiune 1017 hPa
Vizibilitate de 10 km sau mai mult
nu există nori sub 1.500 m și nici cumulonimbus

METAR: LHSM 171015Z AUTO 02014KT 350V050 CAVOK 30/18 Q1017 NOSIG

Ora: 13:06 (11:06 UTC)

Prognoză

Raportul a fost făcut în urmă cu 2 ore și 51 de minute, la 08:15 UTC
Prognoză valabilă de la 17 ora 09 UTC la 17 ora 18 UTC
Vânt 15 kt de la Nord cu rafale de până la 25 kt
Vizibilitate de 10 km sau mai mult
nu există nori sub 1.500 m și nici cumulonimbus

TAF: LHSM 170815Z 1709/1718 36015G25KT CAVOK

Observații și prognoze meteo pentru peste 4.000 de aeroporturi (rapoarte METAR și TAF).

Stațiile disponibile sunt reprezentate pe hartă prin puncte galbene și roșii.

Țineți indicatorul mouse-ului pe punctul dorit pentru a vedea denumirea stației.

Apoi, faceți clic pentru a vedea observațiile și prognozele meteorologice.

Pentru a schimba harta: Pentru mărire, faceți clic pe butoanele verzi cu cruce neagră; pentru micșorare, pe butonul verde cu o liniuță; pentru hărți învecinate, pe săgețile verzi.


METAR-TAF: